KDBQ/DBQ METAR and TAF weather

Enter ICAO airport designator
Station Type Date Time Source
KDBQ METAR 2019/08/21 01:53 UTC NOAA

KDBQ 210153Z AUTO 24003KT 10SM CLR 22/21 A2999 RMK AO2 SLP152 T02170206


Station Type Date Time Source
KDBQ Decoded METAR 2019/08/21 01:53 UTC NOAA

Station name not available
Aug 20, 2019 - 09:53 PM EDT / 2019.08.21 0153 UTC
Wind: from the WSW (240 degrees) at 3 MPH (3 KT):0
Visibility: 10 mile(s):0
Sky conditions: clear
Temperature: 71.1 F (21.7 C)
Dew Point: 69.1 F (20.6 C)
Relative Humidity: 93%
Pressure (altimeter): 29.99 in. Hg (1015 hPa)
ob: KDBQ 210153Z AUTO 24003KT 10SM CLR 22/21 A2999 RMK AO2 SLP152 T02170206
cycle: 2

Station Type Date Time Source
KDBQ TAF 2019/08/20 20:59 UTC NOAA

TAF
AMD KDBQ 201959Z 2020/2118 34006KT P6SM SCT025 SCT050
FM210400 34009KT 6SM BR BKN020
FM210800 35005KT 2SM BR BKN007
FM211400 35009KT P6SM BKN020

Example: see airport list